Rio Fortuna, Brazil
Current Conditions -  °F | °C
As of 2:00 PM on Wednesday 26 Nov 2014 (Local Time) from SBCM Reporting Station
Scattered Clouds Scattered Clouds  
Wind Chill: 82°   Ceiling: Unl
Heat Index: 85°   Visibility: 6mi
Dew Point: 68°   Wind: 8mph
Humidity: 62%   Direction: 180°S
Pressure: 29.8"   Gusts: NA
Location:  28.14°S, 49.1°W
Report Text: SBCM 261600Z 18007KT 9999 SCT025 28/20 Q1009
Loading
Personal Weather Stations






























Interactive Weather Map New forecast layout! Learn more

10-Day Weather Forecast

Advertisements
Track Severe Weather on mobile